Huvudsida
METAR-TAF:

METAR-TAF

Flygplatser :

Höga Kusten Airport

Kramfors, Sverige

latitud: 63-03N, longitud: 017-46E, höjd: 10 m

Aktuellt väderrapport

Denna rapport gjordes för 40 minuter sedan, klockan 22:50 UTC
Vind 13 kt från syd
Temperatur 3°C
Fuktighet 65%
Tryck 1008 hPa
Sikt 10 km eller mer

METAR: ESNK 222250Z AUTO 17013KT 9999 OVC150/// 03/M03 Q1008

Tid: 00:30 (23:30 UTC)

Väderprognos

Denna rapport gjordes för 6 timmar och 0 minuter sedan, klockan 17:30 UTC
Prognos gäller från 22 kl. 18 UTC till 22 kl. 20 UTC
Vind 15 kt från syd
Sikt 10 km eller mer
Brutna moln på en höjd av 4500 ft

TAF: ESNK 221730Z 2218/2220 18015KT 9999 BKN045

Aktuella väderrapporter och prognoser från 4000 flygplatser (METAR- och TAF-rapporter).

De tillgängliga stationerna syns som gula och röda prickar på kartan.

För musen över prickarna för att se namnen på stationerna.

Klicka sedan för att få väderrapporter och prognoser.

För att ändra kartan: Klicka på de gröna knapparna med ett svart kors på för att zooma in; den gröna knappen med ett streck på för att zooma ut; eller på de gröna pilarna för angränsande kartor.


METAR-TAF: